sensor_id;sensor_type;location;lat;lon;timestamp;P1;durP1;ratioP1;P2;durP2;ratioP2
705;SDS011;21234;48.690;9.016;2023-09-30T00:00:56;5.67;;;2.80;;
705;SDS011;21234;48.690;9.016;2023-09-30T00:03:22;4.37;;;2.67;;
705;SDS011;21234;48.690;9.016;2023-09-30T00:05:49;5.10;;;3.07;;
705;SDS011;21234;48.690;9.016;2023-09-30T00:08:16;4.40;;;2.40;;
705;SDS011;21234;48.690;9.016;2023-09-30T00:10:44;5.20;;;2.77;;
705;SDS011;21234;48.690;9.016;2023-09-30T00:13:11;3.63;;;2.53;;
705;SDS011;21234;48.690;9.016;2023-09-30T00:15:38;7.87;;;2.80;;
705;SDS011;21234;48.690;9.016;2023-09-30T00:18:06;2.70;;;1.97;;
705;SDS011;21234;48.690;9.016;2023-09-30T00:20:32;3.63;;;2.10;;
705;SDS011;21234;48.690;9.016;2023-09-30T00:22:59;6.27;;;3.50;;
705;SDS011;21234;48.690;9.016;2023-09-30T00:25:26;4.63;;;2.50;;
705;SDS011;21234;48.690;9.016;2023-09-30T00:27:54;5.97;;;2.40;;
705;SDS011;21234;48.690;9.016;2023-09-30T00:30:21;6.30;;;3.07;;
705;SDS011;21234;48.690;9.016;2023-09-30T00:32:47;4.10;;;2.30;;
705;SDS011;21234;48.690;9.016;2023-09-30T00:35:14;5.30;;;2.90;;
705;SDS011;21234;48.690;9.016;2023-09-30T00:37:41;3.67;;;2.57;;
705;SDS011;21234;48.690;9.016;2023-09-30T00:40:09;5.30;;;2.70;;
705;SDS011;21234;48.690;9.016;2023-09-30T00:42:37;6.20;;;2.70;;
705;SDS011;21234;48.690;9.016;2023-09-30T00:45:05;3.27;;;2.30;;
705;SDS011;21234;48.690;9.016;2023-09-30T00:47:34;5.80;;;2.67;;
705;SDS011;21234;48.690;9.016;2023-09-30T00:50:02;3.93;;;2.70;;
705;SDS011;21234;48.690;9.016;2023-09-30T00:52:29;4.00;;;2.93;;
705;SDS011;21234;48.690;9.016;2023-09-30T00:54:58;3.53;;;2.77;;
705;SDS011;21234;48.690;9.016;2023-09-30T00:57:25;3.50;;;2.07;;
705;SDS011;21234;48.690;9.016;2023-09-30T00:59:53;3.90;;;2.20;;
705;SDS011;21234;48.690;9.016;2023-09-30T01:02:21;7.97;;;3.13;;
705;SDS011;21234;48.690;9.016;2023-09-30T01:04:49;4.47;;;2.73;;
705;SDS011;21234;48.690;9.016;2023-09-30T01:07:16;8.40;;;3.30;;
705;SDS011;21234;48.690;9.016;2023-09-30T01:09:46;4.13;;;2.90;;
705;SDS011;21234;48.690;9.016;2023-09-30T01:12:13;4.67;;;2.60;;
705;SDS011;21234;48.690;9.016;2023-09-30T01:14:40;4.57;;;2.30;;
705;SDS011;21234;48.690;9.016;2023-09-30T01:17:07;4.80;;;2.60;;
705;SDS011;21234;48.690;9.016;2023-09-30T01:19:38;5.00;;;2.40;;
705;SDS011;21234;48.690;9.016;2023-09-30T01:22:06;4.43;;;2.60;;
705;SDS011;21234;48.690;9.016;2023-09-30T01:24:37;4.30;;;2.60;;
705;SDS011;21234;48.690;9.016;2023-09-30T01:27:05;5.30;;;3.13;;
705;SDS011;21234;48.690;9.016;2023-09-30T01:29:32;6.30;;;2.97;;
705;SDS011;21234;48.690;9.016;2023-09-30T01:31:58;6.00;;;3.33;;
705;SDS011;21234;48.690;9.016;2023-09-30T01:34:25;4.47;;;2.87;;
705;SDS011;21234;48.690;9.016;2023-09-30T01:36:52;5.43;;;3.20;;
705;SDS011;21234;48.690;9.016;2023-09-30T01:39:20;4.90;;;3.00;;
705;SDS011;21234;48.690;9.016;2023-09-30T01:41:48;5.63;;;2.87;;
705;SDS011;21234;48.690;9.016;2023-09-30T01:44:15;3.33;;;2.47;;
705;SDS011;21234;48.690;9.016;2023-09-30T01:46:41;6.50;;;2.80;;
705;SDS011;21234;48.690;9.016;2023-09-30T01:49:08;6.20;;;3.10;;
705;SDS011;21234;48.690;9.016;2023-09-30T01:51:35;5.67;;;3.10;;
705;SDS011;21234;48.690;9.016;2023-09-30T01:54:02;6.90;;;3.60;;
705;SDS011;21234;48.690;9.016;2023-09-30T01:56:31;4.80;;;2.80;;
705;SDS011;21234;48.690;9.016;2023-09-30T01:58:58;4.43;;;2.50;;
705;SDS011;21234;48.690;9.016;2023-09-30T02:01:25;7.70;;;3.27;;
705;SDS011;21234;48.690;9.016;2023-09-30T02:03:52;4.70;;;2.80;;
705;SDS011;21234;48.690;9.016;2023-09-30T02:06:19;5.67;;;2.83;;
705;SDS011;21234;48.690;9.016;2023-09-30T02:08:45;6.20;;;3.00;;
705;SDS011;21234;48.690;9.016;2023-09-30T02:11:12;4.70;;;2.80;;
705;SDS011;21234;48.690;9.016;2023-09-30T02:13:40;3.60;;;2.23;;
705;SDS011;21234;48.690;9.016;2023-09-30T02:16:11;7.83;;;3.00;;
705;SDS011;21234;48.690;9.016;2023-09-30T02:18:38;9.33;;;3.20;;
705;SDS011;21234;48.690;9.016;2023-09-30T02:21:06;3.80;;;2.50;;
705;SDS011;21234;48.690;9.016;2023-09-30T02:23:33;5.67;;;2.97;;
705;SDS011;21234;48.690;9.016;2023-09-30T02:26:00;5.67;;;3.07;;
705;SDS011;21234;48.690;9.016;2023-09-30T02:28:27;5.40;;;2.80;;
705;SDS011;21234;48.690;9.016;2023-09-30T02:30:56;4.47;;;2.40;;
705;SDS011;21234;48.690;9.016;2023-09-30T02:33:22;4.10;;;3.03;;
705;SDS011;21234;48.690;9.016;2023-09-30T02:35:51;3.80;;;2.30;;
705;SDS011;21234;48.690;9.016;2023-09-30T02:38:17;4.20;;;2.50;;
705;SDS011;21234;48.690;9.016;2023-09-30T02:40:46;5.60;;;2.73;;
705;SDS011;21234;48.690;9.016;2023-09-30T02:43:15;3.90;;;2.80;;
705;SDS011;21234;48.690;9.016;2023-09-30T02:45:41;4.13;;;3.60;;
705;SDS011;21234;48.690;9.016;2023-09-30T02:48:10;5.50;;;2.83;;
705;SDS011;21234;48.690;9.016;2023-09-30T02:50:36;5.33;;;2.57;;
705;SDS011;21234;48.690;9.016;2023-09-30T02:53:04;5.37;;;3.13;;
705;SDS011;21234;48.690;9.016;2023-09-30T02:55:31;3.03;;;2.47;;
705;SDS011;21234;48.690;9.016;2023-09-30T02:57:58;6.20;;;2.67;;
705;SDS011;21234;48.690;9.016;2023-09-30T03:00:26;6.03;;;2.57;;
705;SDS011;21234;48.690;9.016;2023-09-30T03:02:59;3.60;;;2.97;;
705;SDS011;21234;48.690;9.016;2023-09-30T03:05:28;5.10;;;3.20;;
705;SDS011;21234;48.690;9.016;2023-09-30T03:07:58;7.40;;;3.37;;
705;SDS011;21234;48.690;9.016;2023-09-30T03:10:25;5.93;;;3.27;;
705;SDS011;21234;48.690;9.016;2023-09-30T03:12:52;5.70;;;3.40;;
705;SDS011;21234;48.690;9.016;2023-09-30T03:15:19;4.17;;;3.23;;
705;SDS011;21234;48.690;9.016;2023-09-30T03:17:45;7.00;;;3.10;;
705;SDS011;21234;48.690;9.016;2023-09-30T03:20:12;2.87;;;2.60;;
705;SDS011;21234;48.690;9.016;2023-09-30T03:22:45;4.73;;;3.07;;
705;SDS011;21234;48.690;9.016;2023-09-30T03:25:13;5.57;;;3.20;;
705;SDS011;21234;48.690;9.016;2023-09-30T03:27:42;3.83;;;2.53;;
705;SDS011;21234;48.690;9.016;2023-09-30T03:30:09;2.97;;;2.60;;
705;SDS011;21234;48.690;9.016;2023-09-30T03:32:37;6.57;;;3.50;;
705;SDS011;21234;48.690;9.016;2023-09-30T03:35:04;3.67;;;2.73;;
705;SDS011;21234;48.690;9.016;2023-09-30T03:37:32;5.17;;;3.47;;
705;SDS011;21234;48.690;9.016;2023-09-30T03:40:01;4.30;;;2.97;;
705;SDS011;21234;48.690;9.016;2023-09-30T03:42:36;5.93;;;3.10;;
705;SDS011;21234;48.690;9.016;2023-09-30T03:45:04;4.50;;;3.20;;
705;SDS011;21234;48.690;9.016;2023-09-30T03:47:33;4.57;;;2.90;;
705;SDS011;21234;48.690;9.016;2023-09-30T03:50:00;4.87;;;3.70;;
705;SDS011;21234;48.690;9.016;2023-09-30T03:52:29;5.20;;;3.30;;
705;SDS011;21234;48.690;9.016;2023-09-30T03:54:58;3.77;;;2.63;;
705;SDS011;21234;48.690;9.016;2023-09-30T03:57:26;8.73;;;3.57;;
705;SDS011;21234;48.690;9.016;2023-09-30T03:59:53;5.27;;;4.20;;
705;SDS011;21234;48.690;9.016;2023-09-30T04:02:20;3.50;;;2.90;;
705;SDS011;21234;48.690;9.016;2023-09-30T04:04:47;3.20;;;2.90;;
705;SDS011;21234;48.690;9.016;2023-09-30T04:07:16;5.20;;;3.37;;
705;SDS011;21234;48.690;9.016;2023-09-30T04:09:43;3.60;;;2.97;;
705;SDS011;21234;48.690;9.016;2023-09-30T04:12:09;2.97;;;2.67;;
705;SDS011;21234;48.690;9.016;2023-09-30T04:14:38;4.37;;;3.17;;
705;SDS011;21234;48.690;9.016;2023-09-30T04:17:04;4.53;;;2.50;;
705;SDS011;21234;48.690;9.016;2023-09-30T04:19:31;6.83;;;3.63;;
705;SDS011;21234;48.690;9.016;2023-09-30T04:21:58;4.27;;;3.23;;
705;SDS011;21234;48.690;9.016;2023-09-30T04:24:25;7.80;;;3.20;;
705;SDS011;21234;48.690;9.016;2023-09-30T04:26:53;5.47;;;3.27;;
705;SDS011;21234;48.690;9.016;2023-09-30T04:29:22;5.53;;;3.20;;
705;SDS011;21234;48.690;9.016;2023-09-30T04:31:50;4.63;;;3.07;;
705;SDS011;21234;48.690;9.016;2023-09-30T04:34:17;8.27;;;3.53;;
705;SDS011;21234;48.690;9.016;2023-09-30T04:36:44;4.57;;;2.63;;
705;SDS011;21234;48.690;9.016;2023-09-30T04:39:11;5.13;;;3.80;;
705;SDS011;21234;48.690;9.016;2023-09-30T04:41:37;5.40;;;3.47;;
705;SDS011;21234;48.690;9.016;2023-09-30T04:44:06;4.17;;;3.10;;
705;SDS011;21234;48.690;9.016;2023-09-30T04:46:35;6.37;;;3.50;;
705;SDS011;21234;48.690;9.016;2023-09-30T04:49:06;6.43;;;4.03;;
705;SDS011;21234;48.690;9.016;2023-09-30T04:51:34;4.60;;;2.77;;
705;SDS011;21234;48.690;9.016;2023-09-30T04:54:00;5.77;;;3.27;;
705;SDS011;21234;48.690;9.016;2023-09-30T04:56:28;5.90;;;3.13;;
705;SDS011;21234;48.690;9.016;2023-09-30T04:58:55;3.63;;;2.60;;
705;SDS011;21234;48.690;9.016;2023-09-30T05:01:23;5.43;;;2.90;;
705;SDS011;21234;48.690;9.016;2023-09-30T05:03:50;5.80;;;3.80;;
705;SDS011;21234;48.690;9.016;2023-09-30T05:06:18;4.80;;;3.00;;
705;SDS011;21234;48.690;9.016;2023-09-30T05:08:46;8.20;;;3.40;;
705;SDS011;21234;48.690;9.016;2023-09-30T05:11:12;5.10;;;2.83;;
705;SDS011;21234;48.690;9.016;2023-09-30T05:13:39;4.20;;;2.90;;
705;SDS011;21234;48.690;9.016;2023-09-30T05:16:06;4.93;;;2.90;;
705;SDS011;21234;48.690;9.016;2023-09-30T05:18:32;5.78;;;3.90;;
705;SDS011;21234;48.690;9.016;2023-09-30T05:20:59;4.50;;;3.93;;
705;SDS011;21234;48.690;9.016;2023-09-30T05:23:27;5.43;;;3.30;;
705;SDS011;21234;48.690;9.016;2023-09-30T05:25:54;4.10;;;3.40;;
705;SDS011;21234;48.690;9.016;2023-09-30T05:28:21;5.83;;;3.10;;
705;SDS011;21234;48.690;9.016;2023-09-30T05:30:47;7.83;;;4.30;;
705;SDS011;21234;48.690;9.016;2023-09-30T05:33:15;6.33;;;4.13;;
705;SDS011;21234;48.690;9.016;2023-09-30T05:35:42;6.70;;;3.30;;
705;SDS011;21234;48.690;9.016;2023-09-30T05:38:09;3.63;;;2.57;;
705;SDS011;21234;48.690;9.016;2023-09-30T05:40:39;9.77;;;4.40;;
705;SDS011;21234;48.690;9.016;2023-09-30T05:43:06;6.10;;;3.47;;
705;SDS011;21234;48.690;9.016;2023-09-30T05:45:33;5.10;;;3.60;;
705;SDS011;21234;48.690;9.016;2023-09-30T05:48:01;4.83;;;3.27;;
705;SDS011;21234;48.690;9.016;2023-09-30T05:50:31;3.67;;;2.80;;
705;SDS011;21234;48.690;9.016;2023-09-30T05:52:59;6.67;;;4.27;;
705;SDS011;21234;48.690;9.016;2023-09-30T05:55:26;9.17;;;4.20;;
705;SDS011;21234;48.690;9.016;2023-09-30T05:57:54;5.00;;;4.50;;
705;SDS011;21234;48.690;9.016;2023-09-30T06:00:21;3.87;;;3.00;;
705;SDS011;21234;48.690;9.016;2023-09-30T06:02:48;6.10;;;3.90;;
705;SDS011;21234;48.690;9.016;2023-09-30T06:05:16;4.60;;;2.70;;
705;SDS011;21234;48.690;9.016;2023-09-30T06:07:45;6.40;;;4.20;;
705;SDS011;21234;48.690;9.016;2023-09-30T06:10:12;3.93;;;3.37;;
705;SDS011;21234;48.690;9.016;2023-09-30T06:12:43;6.60;;;3.50;;
705;SDS011;21234;48.690;9.016;2023-09-30T06:15:12;6.53;;;3.20;;
705;SDS011;21234;48.690;9.016;2023-09-30T06:17:40;6.37;;;3.40;;
705;SDS011;21234;48.690;9.016;2023-09-30T06:20:07;4.20;;;3.60;;
705;SDS011;21234;48.690;9.016;2023-09-30T06:22:41;7.87;;;4.40;;
705;SDS011;21234;48.690;9.016;2023-09-30T06:25:08;6.13;;;3.87;;
705;SDS011;21234;48.690;9.016;2023-09-30T06:27:35;6.37;;;3.33;;
705;SDS011;21234;48.690;9.016;2023-09-30T06:30:03;5.50;;;3.60;;
705;SDS011;21234;48.690;9.016;2023-09-30T06:32:32;8.07;;;4.00;;
705;SDS011;21234;48.690;9.016;2023-09-30T06:35:01;7.03;;;3.97;;
705;SDS011;21234;48.690;9.016;2023-09-30T06:37:34;4.40;;;3.60;;
705;SDS011;21234;48.690;9.016;2023-09-30T06:40:38;5.67;;;4.00;;
705;SDS011;21234;48.690;9.016;2023-09-30T06:46:39;4.53;;;3.37;;
705;SDS011;21234;48.690;9.016;2023-09-30T06:58:17;5.20;;;4.10;;
705;SDS011;21234;48.690;9.016;2023-09-30T07:00:46;4.70;;;4.30;;
705;SDS011;21234;48.690;9.016;2023-09-30T07:03:14;5.77;;;3.97;;
705;SDS011;21234;48.690;9.016;2023-09-30T07:05:42;6.03;;;4.00;;
705;SDS011;21234;48.690;9.016;2023-09-30T07:08:09;7.20;;;3.87;;
705;SDS011;21234;48.690;9.016;2023-09-30T07:10:36;6.27;;;4.80;;
705;SDS011;21234;48.690;9.016;2023-09-30T07:13:03;9.53;;;4.70;;
705;SDS011;21234;48.690;9.016;2023-09-30T07:15:31;8.80;;;4.10;;
705;SDS011;21234;48.690;9.016;2023-09-30T07:17:58;4.80;;;4.00;;
705;SDS011;21234;48.690;9.016;2023-09-30T07:20:25;5.83;;;5.03;;
705;SDS011;21234;48.690;9.016;2023-09-30T07:22:53;8.47;;;4.60;;
705;SDS011;21234;48.690;9.016;2023-09-30T07:25:20;6.50;;;3.80;;
705;SDS011;21234;48.690;9.016;2023-09-30T07:27:46;8.70;;;5.30;;
705;SDS011;21234;48.690;9.016;2023-09-30T07:30:13;4.27;;;3.70;;
705;SDS011;21234;48.690;9.016;2023-09-30T07:32:41;5.10;;;4.60;;
705;SDS011;21234;48.690;9.016;2023-09-30T07:35:08;9.57;;;5.20;;
705;SDS011;21234;48.690;9.016;2023-09-30T07:37:35;5.17;;;4.63;;
705;SDS011;21234;48.690;9.016;2023-09-30T07:40:04;5.10;;;4.50;;
705;SDS011;21234;48.690;9.016;2023-09-30T07:42:32;6.33;;;5.67;;
705;SDS011;21234;48.690;9.016;2023-09-30T07:45:00;7.40;;;4.50;;
705;SDS011;21234;48.690;9.016;2023-09-30T07:47:28;7.33;;;5.17;;
705;SDS011;21234;48.690;9.016;2023-09-30T07:49:56;5.40;;;4.10;;
705;SDS011;21234;48.690;9.016;2023-09-30T07:52:23;8.00;;;4.97;;
705;SDS011;21234;48.690;9.016;2023-09-30T07:54:51;7.27;;;4.63;;
705;SDS011;21234;48.690;9.016;2023-09-30T07:57:19;7.50;;;4.60;;
705;SDS011;21234;48.690;9.016;2023-09-30T07:59:46;7.57;;;5.27;;
705;SDS011;21234;48.690;9.016;2023-09-30T08:02:14;5.77;;;4.60;;
705;SDS011;21234;48.690;9.016;2023-09-30T08:04:40;6.40;;;3.33;;
705;SDS011;21234;48.690;9.016;2023-09-30T08:07:07;7.60;;;3.50;;
705;SDS011;21234;48.690;9.016;2023-09-30T08:09:34;5.87;;;4.67;;
705;SDS011;21234;48.690;9.016;2023-09-30T08:12:02;6.50;;;3.50;;
705;SDS011;21234;48.690;9.016;2023-09-30T08:14:31;6.93;;;3.53;;
705;SDS011;21234;48.690;9.016;2023-09-30T08:16:57;7.77;;;4.00;;
705;SDS011;21234;48.690;9.016;2023-09-30T08:19:24;8.03;;;4.40;;
705;SDS011;21234;48.690;9.016;2023-09-30T08:21:50;5.30;;;4.80;;
705;SDS011;21234;48.690;9.016;2023-09-30T08:24:17;6.43;;;5.20;;
705;SDS011;21234;48.690;9.016;2023-09-30T08:26:44;6.80;;;4.40;;
705;SDS011;21234;48.690;9.016;2023-09-30T08:29:10;5.50;;;4.10;;
705;SDS011;21234;48.690;9.016;2023-09-30T08:31:38;4.80;;;4.07;;
705;SDS011;21234;48.690;9.016;2023-09-30T08:34:05;7.20;;;4.13;;
705;SDS011;21234;48.690;9.016;2023-09-30T08:36:32;5.63;;;3.00;;
705;SDS011;21234;48.690;9.016;2023-09-30T08:38:59;6.50;;;4.13;;
705;SDS011;21234;48.690;9.016;2023-09-30T08:41:28;7.97;;;4.03;;
705;SDS011;21234;48.690;9.016;2023-09-30T08:43:58;7.20;;;3.90;;
705;SDS011;21234;48.690;9.016;2023-09-30T08:46:27;11.40;;;4.23;;
705;SDS011;21234;48.690;9.016;2023-09-30T08:48:58;8.13;;;4.40;;
705;SDS011;21234;48.690;9.016;2023-09-30T08:51:27;5.67;;;3.93;;
705;SDS011;21234;48.690;9.016;2023-09-30T08:53:56;4.77;;;4.30;;
705;SDS011;21234;48.690;9.016;2023-09-30T08:56:24;7.33;;;4.50;;
705;SDS011;21234;48.690;9.016;2023-09-30T08:58:53;8.03;;;4.53;;
705;SDS011;21234;48.690;9.016;2023-09-30T09:01:22;5.93;;;3.70;;
705;SDS011;21234;48.690;9.016;2023-09-30T09:03:50;4.90;;;3.90;;
705;SDS011;21234;48.690;9.016;2023-09-30T09:06:19;6.60;;;4.93;;
705;SDS011;21234;48.690;9.016;2023-09-30T09:08:46;6.03;;;4.30;;
705;SDS011;21234;48.690;9.016;2023-09-30T09:11:13;6.50;;;4.60;;
705;SDS011;21234;48.690;9.016;2023-09-30T09:13:46;5.00;;;4.07;;
705;SDS011;21234;48.690;9.016;2023-09-30T09:16:15;6.37;;;3.47;;
705;SDS011;21234;48.690;9.016;2023-09-30T09:18:44;5.47;;;5.00;;
705;SDS011;21234;48.690;9.016;2023-09-30T09:21:13;5.50;;;4.17;;
705;SDS011;21234;48.690;9.016;2023-09-30T09:23:46;4.47;;;3.80;;
705;SDS011;21234;48.690;9.016;2023-09-30T09:26:22;5.37;;;3.90;;
705;SDS011;21234;48.690;9.016;2023-09-30T09:28:50;4.83;;;3.90;;
705;SDS011;21234;48.690;9.016;2023-09-30T09:31:23;4.57;;;3.53;;
705;SDS011;21234;48.690;9.016;2023-09-30T09:33:51;6.77;;;4.50;;
705;SDS011;21234;48.690;9.016;2023-09-30T09:36:18;7.67;;;4.17;;
705;SDS011;21234;48.690;9.016;2023-09-30T09:38:47;5.60;;;4.97;;
705;SDS011;21234;48.690;9.016;2023-09-30T09:41:17;5.47;;;4.60;;
705;SDS011;21234;48.690;9.016;2023-09-30T09:43:43;5.73;;;4.67;;
705;SDS011;21234;48.690;9.016;2023-09-30T09:46:10;5.73;;;4.43;;
705;SDS011;21234;48.690;9.016;2023-09-30T09:48:39;5.63;;;4.00;;
705;SDS011;21234;48.690;9.016;2023-09-30T09:51:06;6.20;;;4.30;;
705;SDS011;21234;48.690;9.016;2023-09-30T09:53:37;9.90;;;4.43;;
705;SDS011;21234;48.690;9.016;2023-09-30T09:56:08;5.03;;;4.23;;
705;SDS011;21234;48.690;9.016;2023-09-30T09:58:37;5.50;;;4.57;;
705;SDS011;21234;48.690;9.016;2023-09-30T10:01:06;6.57;;;4.47;;
705;SDS011;21234;48.690;9.016;2023-09-30T10:03:35;7.40;;;4.33;;
705;SDS011;21234;48.690;9.016;2023-09-30T10:06:02;8.33;;;4.30;;
705;SDS011;21234;48.690;9.016;2023-09-30T10:08:31;6.80;;;4.17;;
705;SDS011;21234;48.690;9.016;2023-09-30T10:11:01;7.63;;;4.90;;
705;SDS011;21234;48.690;9.016;2023-09-30T10:19:16;10.33;;;5.07;;
705;SDS011;21234;48.690;9.016;2023-09-30T10:24:49;5.77;;;4.10;;
705;SDS011;21234;48.690;9.016;2023-09-30T10:27:33;6.50;;;4.60;;
705;SDS011;21234;48.690;9.016;2023-09-30T10:30:10;6.33;;;4.50;;
705;SDS011;21234;48.690;9.016;2023-09-30T10:35:45;6.93;;;4.47;;
705;SDS011;21234;48.690;9.016;2023-09-30T10:41:08;5.53;;;4.03;;
705;SDS011;21234;48.690;9.016;2023-09-30T10:43:37;6.13;;;4.03;;
705;SDS011;21234;48.690;9.016;2023-09-30T10:51:58;7.97;;;4.23;;
705;SDS011;21234;48.690;9.016;2023-09-30T10:54:27;9.37;;;5.20;;
705;SDS011;21234;48.690;9.016;2023-09-30T10:56:55;9.10;;;4.97;;
705;SDS011;21234;48.690;9.016;2023-09-30T10:59:24;5.70;;;4.30;;
705;SDS011;21234;48.690;9.016;2023-09-30T11:01:53;10.17;;;4.73;;
705;SDS011;21234;48.690;9.016;2023-09-30T11:04:20;7.77;;;4.80;;
705;SDS011;21234;48.690;9.016;2023-09-30T11:06:47;11.00;;;4.93;;
705;SDS011;21234;48.690;9.016;2023-09-30T11:09:15;7.20;;;5.50;;
705;SDS011;21234;48.690;9.016;2023-09-30T11:11:43;7.63;;;4.30;;
705;SDS011;21234;48.690;9.016;2023-09-30T11:14:19;7.27;;;5.97;;
705;SDS011;21234;48.690;9.016;2023-09-30T11:16:47;8.80;;;5.40;;
705;SDS011;21234;48.690;9.016;2023-09-30T11:19:16;8.50;;;5.37;;
705;SDS011;21234;48.690;9.016;2023-09-30T11:21:46;7.70;;;5.17;;
705;SDS011;21234;48.690;9.016;2023-09-30T11:24:14;6.17;;;4.67;;
705;SDS011;21234;48.690;9.016;2023-09-30T11:26:41;7.10;;;4.83;;
705;SDS011;21234;48.690;9.016;2023-09-30T11:29:09;6.97;;;4.70;;
705;SDS011;21234;48.690;9.016;2023-09-30T11:31:37;5.80;;;4.67;;
705;SDS011;21234;48.690;9.016;2023-09-30T11:34:04;5.90;;;4.60;;
705;SDS011;21234;48.690;9.016;2023-09-30T11:36:34;8.73;;;4.80;;
705;SDS011;21234;48.690;9.016;2023-09-30T11:39:01;7.37;;;5.07;;
705;SDS011;21234;48.690;9.016;2023-09-30T11:41:32;11.00;;;5.73;;
705;SDS011;21234;48.690;9.016;2023-09-30T11:44:02;9.10;;;4.30;;
705;SDS011;21234;48.690;9.016;2023-09-30T11:46:32;6.83;;;4.90;;
705;SDS011;21234;48.690;9.016;2023-09-30T11:49:23;8.57;;;6.00;;
705;SDS011;21234;48.690;9.016;2023-09-30T11:51:55;9.90;;;5.30;;
705;SDS011;21234;48.690;9.016;2023-09-30T11:54:28;6.13;;;5.10;;
705;SDS011;21234;48.690;9.016;2023-09-30T11:56:59;8.37;;;6.00;;
705;SDS011;21234;48.690;9.016;2023-09-30T11:59:26;8.50;;;5.20;;
705;SDS011;21234;48.690;9.016;2023-09-30T12:01:53;9.80;;;5.27;;
705;SDS011;21234;48.690;9.016;2023-09-30T12:04:20;11.00;;;5.53;;
705;SDS011;21234;48.690;9.016;2023-09-30T12:06:47;8.00;;;4.77;;
705;SDS011;21234;48.690;9.016;2023-09-30T12:09:15;8.80;;;5.27;;
705;SDS011;21234;48.690;9.016;2023-09-30T12:11:47;7.67;;;4.97;;
705;SDS011;21234;48.690;9.016;2023-09-30T12:14:14;8.50;;;4.60;;
705;SDS011;21234;48.690;9.016;2023-09-30T12:16:41;8.80;;;4.87;;
705;SDS011;21234;48.690;9.016;2023-09-30T12:19:10;7.27;;;5.13;;
705;SDS011;21234;48.690;9.016;2023-09-30T12:21:38;7.63;;;4.43;;
705;SDS011;21234;48.690;9.016;2023-09-30T12:24:05;8.80;;;4.87;;
705;SDS011;21234;48.690;9.016;2023-09-30T12:26:35;8.93;;;5.13;;
705;SDS011;21234;48.690;9.016;2023-09-30T12:29:03;7.03;;;4.63;;
705;SDS011;21234;48.690;9.016;2023-09-30T12:31:30;8.93;;;5.90;;
705;SDS011;21234;48.690;9.016;2023-09-30T12:33:58;8.67;;;5.53;;
705;SDS011;21234;48.690;9.016;2023-09-30T12:36:25;7.97;;;4.73;;
705;SDS011;21234;48.690;9.016;2023-09-30T12:38:52;6.20;;;4.30;;
705;SDS011;21234;48.690;9.016;2023-09-30T12:41:19;7.90;;;5.10;;
705;SDS011;21234;48.690;9.016;2023-09-30T12:43:47;7.30;;;3.60;;
705;SDS011;21234;48.690;9.016;2023-09-30T12:46:14;7.30;;;4.90;;
705;SDS011;21234;48.690;9.016;2023-09-30T12:48:41;5.70;;;4.40;;
705;SDS011;21234;48.690;9.016;2023-09-30T12:51:09;6.07;;;4.40;;
705;SDS011;21234;48.690;9.016;2023-09-30T12:53:36;5.27;;;3.90;;
705;SDS011;21234;48.690;9.016;2023-09-30T12:56:03;11.70;;;5.43;;
705;SDS011;21234;48.690;9.016;2023-09-30T12:58:30;5.93;;;4.00;;
705;SDS011;21234;48.690;9.016;2023-09-30T13:00:59;9.90;;;5.00;;
705;SDS011;21234;48.690;9.016;2023-09-30T13:03:26;6.77;;;3.80;;
705;SDS011;21234;48.690;9.016;2023-09-30T13:05:52;7.17;;;4.77;;
705;SDS011;21234;48.690;9.016;2023-09-30T13:08:19;8.87;;;5.33;;
705;SDS011;21234;48.690;9.016;2023-09-30T13:10:46;8.63;;;5.00;;
705;SDS011;21234;48.690;9.016;2023-09-30T13:13:15;8.67;;;5.20;;
705;SDS011;21234;48.690;9.016;2023-09-30T13:15:42;6.47;;;4.53;;
705;SDS011;21234;48.690;9.016;2023-09-30T13:18:10;6.90;;;5.37;;
705;SDS011;21234;48.690;9.016;2023-09-30T13:20:37;10.30;;;4.47;;
705;SDS011;21234;48.690;9.016;2023-09-30T13:23:04;6.10;;;4.23;;
705;SDS011;21234;48.690;9.016;2023-09-30T13:25:31;8.83;;;4.57;;
705;SDS011;21234;48.690;9.016;2023-09-30T13:27:58;9.17;;;5.27;;
705;SDS011;21234;48.690;9.016;2023-09-30T13:30:24;6.90;;;4.50;;
705;SDS011;21234;48.690;9.016;2023-09-30T13:32:51;7.97;;;4.60;;
705;SDS011;21234;48.690;9.016;2023-09-30T13:35:19;5.53;;;4.50;;
705;SDS011;21234;48.690;9.016;2023-09-30T13:37:46;8.63;;;5.27;;
705;SDS011;21234;48.690;9.016;2023-09-30T13:40:13;6.67;;;4.60;;
705;SDS011;21234;48.690;9.016;2023-09-30T13:42:39;5.90;;;4.37;;
705;SDS011;21234;48.690;9.016;2023-09-30T13:45:07;8.20;;;4.30;;
705;SDS011;21234;48.690;9.016;2023-09-30T13:47:35;7.07;;;5.07;;
705;SDS011;21234;48.690;9.016;2023-09-30T13:50:02;8.53;;;5.27;;
705;SDS011;21234;48.690;9.016;2023-09-30T13:52:33;8.27;;;4.73;;
705;SDS011;21234;48.690;9.016;2023-09-30T13:55:01;6.40;;;4.70;;
705;SDS011;21234;48.690;9.016;2023-09-30T13:57:29;5.23;;;4.30;;
705;SDS011;21234;48.690;9.016;2023-09-30T13:59:56;8.03;;;4.47;;
705;SDS011;21234;48.690;9.016;2023-09-30T14:02:23;8.77;;;4.87;;
705;SDS011;21234;48.690;9.016;2023-09-30T14:04:50;10.30;;;5.80;;
705;SDS011;21234;48.690;9.016;2023-09-30T14:07:18;6.97;;;4.20;;
705;SDS011;21234;48.690;9.016;2023-09-30T14:09:46;7.47;;;4.30;;
705;SDS011;21234;48.690;9.016;2023-09-30T14:12:13;9.73;;;4.77;;
705;SDS011;21234;48.690;9.016;2023-09-30T14:14:40;5.97;;;4.50;;
705;SDS011;21234;48.690;9.016;2023-09-30T14:17:07;6.90;;;4.47;;
705;SDS011;21234;48.690;9.016;2023-09-30T14:19:35;5.13;;;4.63;;
705;SDS011;21234;48.690;9.016;2023-09-30T14:22:03;11.43;;;4.95;;
705;SDS011;21234;48.690;9.016;2023-09-30T14:24:31;5.77;;;4.10;;
705;SDS011;21234;48.690;9.016;2023-09-30T14:27:00;6.30;;;3.83;;
705;SDS011;21234;48.690;9.016;2023-09-30T14:29:28;6.20;;;4.37;;
705;SDS011;21234;48.690;9.016;2023-09-30T14:31:54;8.70;;;5.40;;
705;SDS011;21234;48.690;9.016;2023-09-30T14:34:21;6.60;;;4.90;;
705;SDS011;21234;48.690;9.016;2023-09-30T14:36:48;6.93;;;4.27;;
705;SDS011;21234;48.690;9.016;2023-09-30T14:39:15;5.60;;;4.07;;
705;SDS011;21234;48.690;9.016;2023-09-30T14:41:42;7.53;;;4.30;;
705;SDS011;21234;48.690;9.016;2023-09-30T14:44:10;6.50;;;5.07;;
705;SDS011;21234;48.690;9.016;2023-09-30T14:46:37;7.00;;;5.17;;
705;SDS011;21234;48.690;9.016;2023-09-30T14:49:04;8.07;;;5.03;;
705;SDS011;21234;48.690;9.016;2023-09-30T14:51:32;8.30;;;4.70;;
705;SDS011;21234;48.690;9.016;2023-09-30T14:53:59;8.40;;;4.23;;
705;SDS011;21234;48.690;9.016;2023-09-30T14:56:25;7.90;;;4.70;;
705;SDS011;21234;48.690;9.016;2023-09-30T14:58:52;7.40;;;5.07;;
705;SDS011;21234;48.690;9.016;2023-09-30T15:01:20;10.93;;;4.57;;
705;SDS011;21234;48.690;9.016;2023-09-30T15:03:47;8.53;;;4.07;;
705;SDS011;21234;48.690;9.016;2023-09-30T15:06:14;6.53;;;4.50;;
705;SDS011;21234;48.690;9.016;2023-09-30T15:08:40;6.43;;;4.43;;
705;SDS011;21234;48.690;9.016;2023-09-30T15:11:12;5.90;;;4.00;;
705;SDS011;21234;48.690;9.016;2023-09-30T15:13:40;7.43;;;5.00;;
705;SDS011;21234;48.690;9.016;2023-09-30T15:16:13;5.87;;;4.60;;
705;SDS011;21234;48.690;9.016;2023-09-30T15:18:42;6.30;;;4.00;;
705;SDS011;21234;48.690;9.016;2023-09-30T15:21:09;5.77;;;4.03;;
705;SDS011;21234;48.690;9.016;2023-09-30T15:23:36;10.20;;;4.13;;
705;SDS011;21234;48.690;9.016;2023-09-30T15:26:03;6.17;;;3.63;;
705;SDS011;21234;48.690;9.016;2023-09-30T15:28:29;6.03;;;4.47;;
705;SDS011;21234;48.690;9.016;2023-09-30T15:30:56;7.20;;;4.90;;
705;SDS011;21234;48.690;9.016;2023-09-30T15:33:24;11.13;;;4.30;;
705;SDS011;21234;48.690;9.016;2023-09-30T15:35:52;5.73;;;4.07;;
705;SDS011;21234;48.690;9.016;2023-09-30T15:38:19;9.17;;;5.17;;
705;SDS011;21234;48.690;9.016;2023-09-30T15:40:50;6.00;;;4.03;;
705;SDS011;21234;48.690;9.016;2023-09-30T15:43:18;10.03;;;5.40;;
705;SDS011;21234;48.690;9.016;2023-09-30T15:45:45;8.77;;;5.10;;
705;SDS011;21234;48.690;9.016;2023-09-30T15:48:13;6.20;;;4.40;;
705;SDS011;21234;48.690;9.016;2023-09-30T15:50:40;9.73;;;5.30;;
705;SDS011;21234;48.690;9.016;2023-09-30T15:53:08;9.50;;;4.93;;